createdAt,value
2017-06-17T00:01:19.015Z,74.20
2017-06-17T00:03:47.303Z,74.30
2017-06-17T00:06:15.598Z,73.80
2017-06-17T00:08:44.315Z,74.40
2017-06-17T00:11:12.588Z,73.90
2017-06-17T00:13:40.862Z,74.60
2017-06-17T00:16:09.203Z,74.20
2017-06-17T00:18:37.474Z,74.60
2017-06-17T00:21:05.770Z,74.90
2017-06-17T00:23:34.124Z,75.10
2017-06-17T00:26:03.160Z,75.60
2017-06-17T00:28:31.435Z,75.40
2017-06-17T00:33:30.403Z,75.90
2017-06-17T00:35:58.678Z,75.60
2017-06-17T00:38:27.026Z,75.50
2017-06-17T00:43:24.816Z,75.30
2017-06-17T00:45:54.371Z,75.80
2017-06-17T00:48:23.410Z,75.50
2017-06-17T00:53:21.263Z,75.60
2017-06-17T00:55:50.690Z,76.20
2017-06-17T00:58:18.993Z,76.10
2017-06-17T01:00:47.338Z,76.50
2017-06-17T01:03:17.504Z,75.80
2017-06-17T01:05:45.870Z,75.30
2017-06-17T01:08:14.218Z,75.60
2017-06-17T01:10:43.286Z,75.10
2017-06-17T01:13:11.568Z,76.00
2017-06-17T01:15:39.931Z,76.20
2017-06-17T01:18:08.216Z,75.70
2017-06-17T01:20:36.538Z,75.30
2017-06-17T01:23:04.906Z,75.70
2017-06-17T01:25:33.962Z,76.30
2017-06-17T01:28:02.251Z,76.50
2017-06-17T01:30:31.342Z,76.10
2017-06-17T01:33:00.396Z,76.60
2017-06-17T01:37:58.618Z,77.40
2017-06-17T01:42:56.812Z,77.10
2017-06-17T01:45:25.271Z,77.30
2017-06-17T01:47:53.547Z,77.60
2017-06-17T01:50:23.338Z,77.80
2017-06-17T01:52:51.671Z,78.20
2017-06-17T01:55:19.971Z,78.60
2017-06-17T01:57:48.275Z,78.60
2017-06-17T02:00:16.636Z,79.10
2017-06-17T02:02:44.911Z,78.90
2017-06-17T02:05:14.324Z,78.40
2017-06-17T02:07:42.653Z,79.40
2017-06-17T02:10:12.063Z,79.80
2017-06-17T02:15:10.288Z,80.80
2017-06-17T02:17:38.562Z,81.80
2017-06-17T02:20:08.345Z,81.90
2017-06-17T02:25:06.588Z,82.00
2017-06-17T02:27:34.892Z,82.00
2017-06-17T02:30:04.036Z,82.70
2017-06-17T02:32:33.915Z,82.60
2017-06-17T02:35:02.195Z,82.40
2017-06-17T02:37:32.112Z,82.40
2017-06-17T02:40:01.527Z,82.50
2017-06-17T02:42:30.571Z,82.80
2017-06-17T02:45:00.034Z,82.20
2017-06-17T02:47:28.315Z,82.80
2017-06-17T02:49:56.596Z,82.50
2017-06-17T02:52:24.914Z,82.40
2017-06-17T02:54:53.195Z,81.70
2017-06-17T02:57:21.895Z,81.90
2017-06-17T03:02:20.170Z,81.90
2017-06-17T03:04:49.236Z,81.80
2017-06-17T03:07:17.599Z,81.50
2017-06-17T03:09:46.679Z,81.60
2017-06-17T03:12:14.954Z,81.70
2017-06-17T03:14:43.671Z,81.50
2017-06-17T03:17:11.951Z,82.00
2017-06-17T03:19:40.226Z,82.20
2017-06-17T03:24:38.059Z,81.60
2017-06-17T03:27:06.367Z,81.80
2017-06-17T03:29:34.730Z,82.40
2017-06-17T03:32:03.014Z,82.00
2017-06-17T03:34:31.694Z,81.50
2017-06-17T03:37:00.048Z,80.80
2017-06-17T03:39:28.327Z,81.10
2017-06-17T03:41:56.598Z,81.10
2017-06-17T03:44:26.470Z,79.80
2017-06-17T03:46:54.746Z,79.30
2017-06-17T03:49:23.031Z,80.30
2017-06-17T03:51:51.399Z,79.90
2017-06-17T03:54:19.714Z,81.00
2017-06-17T03:56:49.499Z,82.20
2017-06-17T03:59:17.840Z,81.80
2017-06-17T04:01:47.267Z,81.40
2017-06-17T04:04:15.594Z,81.80
2017-06-17T04:09:13.854Z,81.80
2017-06-17T04:11:42.135Z,81.60
2017-06-17T04:14:10.478Z,81.60
2017-06-17T04:19:09.027Z,79.90
2017-06-17T04:24:07.995Z,78.70
2017-06-17T04:29:06.619Z,78.70
2017-06-17T04:31:36.050Z,77.60
2017-06-17T04:34:04.339Z,77.70
2017-06-17T04:36:32.667Z,77.80
2017-06-17T04:39:00.938Z,77.50
2017-06-17T04:41:29.615Z,77.20
2017-06-17T04:43:57.950Z,77.00
2017-06-17T04:46:27.367Z,77.30
2017-06-17T04:48:55.651Z,78.60
2017-06-17T04:51:25.118Z,77.60
2017-06-17T04:53:53.407Z,78.70
2017-06-17T04:56:21.724Z,78.10
2017-06-17T04:58:50.454Z,77.70
2017-06-17T05:01:19.535Z,76.90
2017-06-17T05:06:17.833Z,76.20
2017-06-17T05:08:46.146Z,76.60
2017-06-17T05:11:16.001Z,77.00
2017-06-17T05:13:44.328Z,77.00
2017-06-17T05:16:12.614Z,78.00
2017-06-17T05:18:40.902Z,78.00
2017-06-17T05:21:09.232Z,78.30
2017-06-17T05:23:37.521Z,78.00
2017-06-17T05:26:05.829Z,78.20
2017-06-17T05:28:35.331Z,78.60
2017-06-17T05:31:03.625Z,78.70
2017-06-17T05:33:31.912Z,78.60
2017-06-17T05:36:00.239Z,78.60
2017-06-17T05:38:29.287Z,79.30
2017-06-17T05:40:57.575Z,78.70
2017-06-17T05:43:25.898Z,79.40
2017-06-17T05:48:23.694Z,78.60
2017-06-17T05:50:52.031Z,78.40
2017-06-17T05:53:20.340Z,78.20
2017-06-17T05:55:48.635Z,78.40
2017-06-17T05:58:18.144Z,78.00
2017-06-17T06:00:46.463Z,78.20
2017-06-17T06:03:14.751Z,78.60
2017-06-17T06:05:43.863Z,79.00
2017-06-17T06:08:12.911Z,78.80
2017-06-17T06:10:41.597Z,78.30
2017-06-17T06:13:09.922Z,79.00
2017-06-17T06:15:38.207Z,78.90
2017-06-17T06:18:06.900Z,77.70
2017-06-17T06:20:35.252Z,77.70
2017-06-17T06:23:03.539Z,77.40
2017-06-17T06:25:31.819Z,76.80
2017-06-17T06:28:00.151Z,76.30
2017-06-17T06:30:28.439Z,76.50
2017-06-17T06:32:56.723Z,75.70
2017-06-17T06:35:26.555Z,75.40
2017-06-17T06:37:55.986Z,75.30
2017-06-17T06:40:24.276Z,75.00
2017-06-17T06:42:52.618Z,75.20
2017-06-17T06:45:20.935Z,75.40
2017-06-17T06:47:49.268Z,75.20
2017-06-17T06:50:17.641Z,75.50
2017-06-17T06:52:47.094Z,74.90
2017-06-17T06:55:15.376Z,75.30
2017-06-17T06:57:43.723Z,75.60
2017-06-17T07:00:12.003Z,75.50
2017-06-17T07:02:41.063Z,75.50
2017-06-17T07:05:09.404Z,75.80
2017-06-17T07:07:37.692Z,75.80
2017-06-17T07:10:06.000Z,76.50
2017-06-17T07:12:34.352Z,76.20
2017-06-17T07:15:03.775Z,76.10
2017-06-17T07:17:32.070Z,76.30
2017-06-17T07:20:00.770Z,76.90
2017-06-17T07:22:29.052Z,77.20
2017-06-17T07:24:58.095Z,76.70
2017-06-17T07:27:26.499Z,76.00
2017-06-17T07:29:54.774Z,75.60
2017-06-17T07:32:23.064Z,75.00
2017-06-17T07:34:51.807Z,74.20
2017-06-17T07:37:22.399Z,73.90
2017-06-17T07:39:50.720Z,73.80
2017-06-17T07:42:19.068Z,74.30
2017-06-17T07:44:48.137Z,74.90
2017-06-17T07:47:17.212Z,74.40
2017-06-17T07:49:45.567Z,73.80
2017-06-17T07:52:13.846Z,73.10
2017-06-17T07:54:42.127Z,73.40
2017-06-17T07:57:11.600Z,73.40
2017-06-17T07:59:39.888Z,72.90
2017-06-17T08:02:08.170Z,73.10
2017-06-17T08:04:38.003Z,73.20
2017-06-17T08:07:06.294Z,73.20
2017-06-17T08:09:34.595Z,72.90
2017-06-17T08:12:02.939Z,73.20
2017-06-17T08:14:31.223Z,72.80
2017-06-17T08:19:29.450Z,71.70
2017-06-17T08:21:57.733Z,71.30
2017-06-17T08:24:26.778Z,71.80
2017-06-17T08:26:55.127Z,71.10
2017-06-17T08:29:24.910Z,71.00
2017-06-17T08:31:53.191Z,72.90
2017-06-17T08:34:21.546Z,71.90
2017-06-17T08:36:49.863Z,72.10
2017-06-17T08:39:18.185Z,73.10
2017-06-17T08:41:47.667Z,71.90
2017-06-17T08:44:16.357Z,72.00
2017-06-17T08:46:44.646Z,71.50
2017-06-17T08:49:12.975Z,70.20
2017-06-17T08:51:42.395Z,71.80
2017-06-17T08:54:11.071Z,70.50
2017-06-17T08:56:40.919Z,70.90
2017-06-17T08:59:09.199Z,70.10
2017-06-17T09:01:37.479Z,71.20
2017-06-17T09:04:06.595Z,70.60
2017-06-17T09:06:34.926Z,70.90
2017-06-17T09:09:04.739Z,71.60
2017-06-17T09:11:33.505Z,70.30
2017-06-17T09:14:02.927Z,70.40
2017-06-17T09:16:31.216Z,71.10
2017-06-17T09:18:59.542Z,70.30
2017-06-17T09:21:27.834Z,69.40
2017-06-17T09:23:56.118Z,70.10
2017-06-17T09:26:24.451Z,70.20
2017-06-17T09:28:52.732Z,70.20
2017-06-17T09:31:22.159Z,69.80
2017-06-17T09:33:50.942Z,69.50
2017-06-17T09:36:19.271Z,70.00
2017-06-17T09:38:48.711Z,69.10
2017-06-17T09:41:17.072Z,69.00
2017-06-17T09:46:15.381Z,69.80
2017-06-17T09:48:43.702Z,68.90
2017-06-17T09:51:12.747Z,70.70
2017-06-17T09:53:42.531Z,70.00
2017-06-17T09:56:10.863Z,69.50
2017-06-17T09:58:39.145Z,69.60
2017-06-17T10:01:07.422Z,68.60
2017-06-17T10:03:37.263Z,68.60
2017-06-17T10:06:05.574Z,69.90
2017-06-17T10:08:33.882Z,68.20
2017-06-17T10:11:02.216Z,67.30
2017-06-17T10:13:30.495Z,68.40
2017-06-17T10:16:00.286Z,67.90
2017-06-17T10:18:28.611Z,68.80
2017-06-17T10:21:02.467Z,67.40
2017-06-17T10:23:30.796Z,66.80
2017-06-17T10:25:59.082Z,66.80
2017-06-17T10:28:27.367Z,67.10
2017-06-17T10:33:26.394Z,65.90
2017-06-17T10:35:55.448Z,65.30
2017-06-17T10:38:24.906Z,66.20
2017-06-17T10:43:22.699Z,66.70
2017-06-17T10:45:51.810Z,66.00
2017-06-17T10:48:20.139Z,65.10
2017-06-17T10:50:49.565Z,67.20
2017-06-17T10:53:18.020Z,64.90
2017-06-17T10:55:46.364Z,65.20
2017-06-17T11:00:44.987Z,64.30
2017-06-17T11:03:14.402Z,64.60
2017-06-17T11:05:42.696Z,64.20
2017-06-17T11:08:11.019Z,64.30
2017-06-17T11:10:39.311Z,64.50
2017-06-17T11:13:08.367Z,64.10
2017-06-17T11:15:36.683Z,63.80
2017-06-17T11:18:04.966Z,63.80
2017-06-17T11:23:05.332Z,63.40
2017-06-17T11:25:33.615Z,64.00
2017-06-17T11:28:01.926Z,63.50
2017-06-17T11:30:30.301Z,63.00
2017-06-17T11:32:59.374Z,63.40
2017-06-17T11:35:27.682Z,63.60
2017-06-17T11:37:56.461Z,64.90
2017-06-17T11:40:25.895Z,63.70
2017-06-17T11:42:54.182Z,63.20
2017-06-17T11:45:22.564Z,64.90
2017-06-17T11:47:50.838Z,64.50
2017-06-17T11:50:20.363Z,65.50
2017-06-17T11:52:49.541Z,64.90
2017-06-17T11:55:18.223Z,65.10
2017-06-17T11:57:46.587Z,65.10
2017-06-17T12:00:14.930Z,64.10
2017-06-17T12:02:44.351Z,65.50
2017-06-17T12:05:12.644Z,65.20
2017-06-17T12:07:41.250Z,65.70
2017-06-17T12:10:11.064Z,65.30
2017-06-17T12:12:39.355Z,65.90
2017-06-17T12:15:07.691Z,65.50
2017-06-17T12:17:35.987Z,66.00
2017-06-17T12:20:04.280Z,65.50
2017-06-17T12:22:32.651Z,65.90
2017-06-17T12:25:02.099Z,65.60
2017-06-17T12:27:30.434Z,66.00
2017-06-17T12:29:58.803Z,66.50
2017-06-17T12:32:27.886Z,66.20
2017-06-17T12:34:56.203Z,67.00
2017-06-17T12:37:24.724Z,65.90
2017-06-17T12:39:53.019Z,66.90
2017-06-17T12:42:22.122Z,66.90
2017-06-17T12:44:51.510Z,68.10
2017-06-17T12:47:20.572Z,67.20
2017-06-17T12:49:49.255Z,67.30
2017-06-17T12:52:19.107Z,68.40
2017-06-17T12:54:47.410Z,68.60
2017-06-17T12:57:15.717Z,69.60
2017-06-17T12:59:44.056Z,69.30
2017-06-17T13:02:12.338Z,68.30
2017-06-17T13:04:42.139Z,67.50
2017-06-17T13:09:40.391Z,68.30
2017-06-17T13:12:09.451Z,68.40
2017-06-17T13:14:38.943Z,68.70
2017-06-17T13:17:07.990Z,68.40
2017-06-17T13:19:36.275Z,68.70
2017-06-17T13:22:04.625Z,68.80
2017-06-17T13:24:32.922Z,69.40
2017-06-17T13:27:02.383Z,69.00
2017-06-17T13:32:00.680Z,69.00
2017-06-17T13:36:58.950Z,70.80
2017-06-17T13:39:28.010Z,71.20
2017-06-17T13:41:57.458Z,70.00
2017-06-17T13:46:55.727Z,69.50
2017-06-17T13:51:53.588Z,68.40
2017-06-17T13:56:52.927Z,67.70
2017-06-17T13:59:21.638Z,68.00
2017-06-17T14:01:49.923Z,67.20
2017-06-17T14:06:48.179Z,67.00
2017-06-17T14:11:46.503Z,66.20
2017-06-17T14:14:14.790Z,66.00
2017-06-17T14:16:43.072Z,65.00
2017-06-17T14:19:11.396Z,65.90
2017-06-17T14:21:45.265Z,64.90
2017-06-17T14:24:13.598Z,65.50
2017-06-17T14:26:42.279Z,65.50
2017-06-17T14:29:11.702Z,64.90
2017-06-17T14:31:40.423Z,65.40
2017-06-17T14:34:09.471Z,66.20
2017-06-17T14:39:07.787Z,67.20
2017-06-17T14:41:36.071Z,65.10
2017-06-17T14:44:05.867Z,65.30
2017-06-17T14:46:34.187Z,65.40
2017-06-17T14:51:32.005Z,65.80
2017-06-17T14:54:00.360Z,65.90
2017-06-17T14:56:28.730Z,65.60
2017-06-17T14:58:57.008Z,65.20
2017-06-17T15:01:25.347Z,65.10
2017-06-17T15:03:53.614Z,65.20
2017-06-17T15:06:21.892Z,64.30
2017-06-17T15:08:51.443Z,63.30
2017-06-17T15:11:19.723Z,64.10
2017-06-17T15:13:49.134Z,64.20
2017-06-17T15:16:17.556Z,64.00
2017-06-17T15:18:46.231Z,64.10
2017-06-17T15:21:14.507Z,64.30
2017-06-17T15:23:43.594Z,64.90
2017-06-17T15:26:11.870Z,64.00
2017-06-17T15:28:40.156Z,64.30
2017-06-17T15:31:08.484Z,64.00
2017-06-17T15:33:36.759Z,63.00
2017-06-17T15:36:05.083Z,63.90
2017-06-17T15:38:34.200Z,63.50
2017-06-17T15:41:02.537Z,63.90
2017-06-17T15:43:30.866Z,64.40
2017-06-17T15:45:59.233Z,64.10
2017-06-17T15:48:27.571Z,63.90
2017-06-17T15:50:57.058Z,64.20
2017-06-17T15:53:25.828Z,63.40
2017-06-17T15:55:54.107Z,64.50
2017-06-17T15:58:23.623Z,63.80
2017-06-17T16:00:51.951Z,63.40
2017-06-17T16:03:21.380Z,64.40
2017-06-17T16:05:49.694Z,65.80
2017-06-17T16:08:18.063Z,65.30
2017-06-17T16:10:46.351Z,64.80
2017-06-17T16:13:15.788Z,64.80
2017-06-17T16:15:44.999Z,64.50
2017-06-17T16:18:14.039Z,64.40
2017-06-17T16:20:42.319Z,65.00
2017-06-17T16:23:11.423Z,65.50
2017-06-17T16:25:40.472Z,65.40
2017-06-17T16:28:09.522Z,66.20
2017-06-17T16:30:39.352Z,66.00
2017-06-17T16:35:37.527Z,65.60
2017-06-17T16:40:40.230Z,64.60
2017-06-17T16:43:09.275Z,65.60
2017-06-17T16:45:37.555Z,65.40
2017-06-17T16:48:07.482Z,65.80
2017-06-17T16:53:05.656Z,66.00
2017-06-17T16:55:33.983Z,65.60
2017-06-17T16:58:02.286Z,65.00
2017-06-17T17:00:30.844Z,65.40
2017-06-17T17:02:59.338Z,65.70
2017-06-17T17:05:28.400Z,66.00
2017-06-17T17:07:56.719Z,66.90
2017-06-17T17:10:25.056Z,65.80
2017-06-17T17:15:23.603Z,65.90
2017-06-17T17:17:52.067Z,66.10
2017-06-17T17:20:20.739Z,65.70
2017-06-17T17:22:49.011Z,66.20
2017-06-17T17:25:18.115Z,65.50
2017-06-17T17:27:47.173Z,65.90
2017-06-17T17:32:45.756Z,66.60
2017-06-17T17:35:14.818Z,66.90
2017-06-17T17:40:13.800Z,66.50
2017-06-17T17:42:42.476Z,66.10
2017-06-17T17:45:11.891Z,65.60
2017-06-17T17:47:40.219Z,65.60
2017-06-17T17:50:09.263Z,66.40
2017-06-17T17:52:37.538Z,66.50
2017-06-17T17:55:07.538Z,66.60
2017-06-17T17:57:37.327Z,66.20
2017-06-17T18:00:05.603Z,67.30
2017-06-17T18:05:03.891Z,67.00
2017-06-17T18:07:32.212Z,67.20
2017-06-17T18:10:00.995Z,67.00
2017-06-17T18:14:59.210Z,67.00
2017-06-17T18:17:27.563Z,66.80
2017-06-17T18:19:55.882Z,67.00
2017-06-17T18:22:24.155Z,67.20
2017-06-17T18:24:52.480Z,67.80
2017-06-17T18:27:20.782Z,67.90
2017-06-17T18:29:50.194Z,68.00
2017-06-17T18:32:18.521Z,68.10
2017-06-17T18:34:46.857Z,68.30
2017-06-17T18:37:15.139Z,69.10
2017-06-17T18:39:43.462Z,69.10
2017-06-17T18:42:12.508Z,69.30
2017-06-17T18:44:40.792Z,69.40
2017-06-17T18:47:09.551Z,69.10
2017-06-17T18:49:38.963Z,69.50
2017-06-17T18:52:08.163Z,69.90
2017-06-17T18:54:37.273Z,69.80
2017-06-17T18:57:05.579Z,70.70
2017-06-17T18:59:33.920Z,70.50
2017-06-17T19:02:02.410Z,70.40
2017-06-17T19:04:30.706Z,70.60
2017-06-17T19:06:59.808Z,71.10
2017-06-17T19:09:28.188Z,71.20
2017-06-17T19:11:56.548Z,71.30
2017-06-17T19:14:24.843Z,71.00
2017-06-17T19:16:53.221Z,70.90
2017-06-17T19:19:21.561Z,71.10
2017-06-17T19:21:49.897Z,71.40
2017-06-17T19:24:18.224Z,71.70
2017-06-17T19:26:46.504Z,71.70
2017-06-17T19:29:14.836Z,71.90
2017-06-17T19:31:43.601Z,72.20
2017-06-17T19:34:13.465Z,72.50
2017-06-17T19:36:42.988Z,72.60
2017-06-17T19:39:11.279Z,73.10
2017-06-17T19:41:39.571Z,73.20
2017-06-17T19:44:07.895Z,73.40
2017-06-17T19:46:36.196Z,73.70
2017-06-17T19:49:04.499Z,73.80
2017-06-17T19:51:34.386Z,74.40
2017-06-17T19:54:04.107Z,74.40
2017-06-17T19:56:32.464Z,74.60
2017-06-17T19:59:01.139Z,74.30
2017-06-17T20:01:29.452Z,74.10
2017-06-17T20:03:58.923Z,74.70
2017-06-17T20:06:28.577Z,74.50
2017-06-17T20:08:57.685Z,74.70
2017-06-17T20:13:56.911Z,75.30
2017-06-17T20:16:26.700Z,75.00
2017-06-17T20:18:55.753Z,76.10
2017-06-17T20:21:44.735Z,75.90
2017-06-17T20:24:33.469Z,76.70
2017-06-17T20:27:01.835Z,76.80
2017-06-17T20:29:30.167Z,77.10
2017-06-17T20:31:59.621Z,77.40
2017-06-17T20:34:27.980Z,78.00
2017-06-17T20:36:56.271Z,78.10
2017-06-17T20:39:24.554Z,78.10
2017-06-17T20:41:52.871Z,78.40
2017-06-17T20:44:21.154Z,78.60
2017-06-17T20:49:19.252Z,78.70
2017-06-17T20:51:48.308Z,78.70
2017-06-17T20:54:16.585Z,78.70
2017-06-17T20:56:46.052Z,78.80
2017-06-17T20:59:14.732Z,79.30
2017-06-17T21:01:43.010Z,79.60
2017-06-17T21:04:13.035Z,79.70
2017-06-17T21:06:41.727Z,80.00
2017-06-17T21:09:10.014Z,79.70
2017-06-17T21:11:38.430Z,79.70
2017-06-17T21:14:07.478Z,79.50
2017-06-17T21:19:06.135Z,79.40
2017-06-17T21:21:34.840Z,79.70
2017-06-17T21:24:04.317Z,80.00
2017-06-17T21:26:33.685Z,80.20
2017-06-17T21:29:03.127Z,80.00
2017-06-17T21:31:32.202Z,80.10
2017-06-17T21:34:00.868Z,79.70
2017-06-17T21:36:30.298Z,79.00
2017-06-17T21:38:58.615Z,79.20
2017-06-17T21:41:27.439Z,79.60
2017-06-17T21:43:55.719Z,79.70
2017-06-17T21:46:25.502Z,79.50
2017-06-17T21:48:53.835Z,79.70
2017-06-17T21:51:22.119Z,79.50
2017-06-17T21:53:51.163Z,79.40
2017-06-17T21:56:19.575Z,79.60
2017-06-17T21:58:47.877Z,79.80
2017-06-17T22:01:16.180Z,80.00
2017-06-17T22:03:44.523Z,80.20
2017-06-17T22:06:14.311Z,80.20
2017-06-17T22:08:42.586Z,79.90
2017-06-17T22:11:10.919Z,79.80
2017-06-17T22:13:39.203Z,79.60
2017-06-17T22:16:08.248Z,79.40
2017-06-17T22:21:06.811Z,79.20
2017-06-17T22:23:35.090Z,78.80
2017-06-17T22:26:04.642Z,78.80
2017-06-17T22:28:32.935Z,78.70
2017-06-17T22:31:01.232Z,78.70
2017-06-17T22:33:29.682Z,79.20
2017-06-17T22:35:59.139Z,78.80
2017-06-17T22:38:28.198Z,79.10
2017-06-17T22:40:56.527Z,79.00
2017-06-17T22:43:25.207Z,79.30
2017-06-17T22:45:54.252Z,79.10
2017-06-17T22:48:22.623Z,78.90
2017-06-17T22:50:50.899Z,79.10
2017-06-17T22:53:19.943Z,79.90
2017-06-17T22:55:48.302Z,80.10
2017-06-17T22:58:18.090Z,79.70
2017-06-17T23:03:16.343Z,79.60
2017-06-17T23:05:45.027Z,80.00
2017-06-17T23:08:13.307Z,80.20
2017-06-17T23:10:41.808Z,80.30
2017-06-17T23:13:10.479Z,80.30
2017-06-17T23:15:38.763Z,80.30
2017-06-17T23:18:07.487Z,80.20
2017-06-17T23:20:36.167Z,80.20
2017-06-17T23:23:05.587Z,80.00
2017-06-17T23:25:33.910Z,80.00
2017-06-17T23:28:02.219Z,80.20
2017-06-17T23:30:30.520Z,80.30
2017-06-17T23:32:59.629Z,80.50
2017-06-17T23:35:29.075Z,80.80
2017-06-17T23:37:57.783Z,80.70
2017-06-17T23:40:26.115Z,81.00
2017-06-17T23:42:55.907Z,81.10
2017-06-17T23:45:26.199Z,81.50
2017-06-17T23:47:54.520Z,81.60
2017-06-17T23:50:22.794Z,82.10
2017-06-17T23:52:51.112Z,82.30
2017-06-17T23:55:19.426Z,82.60
2017-06-17T23:57:47.730Z,82.50
